sensor_id;sensor_type;location;lat;lon;timestamp;pressure;altitude;pressure_sealevel;temperature;humidity
74218;BME280;62579;47.288;18.646;2023-04-25T00:00:11;98873.69;;;11.43;85.25
74218;BME280;62579;47.288;18.646;2023-04-25T00:02:36;98871.50;;;11.41;85.47
74218;BME280;62579;47.288;18.646;2023-04-25T00:05:02;98879.56;;;11.34;85.44
74218;BME280;62579;47.288;18.646;2023-04-25T00:07:29;98873.16;;;11.44;84.77
74218;BME280;62579;47.288;18.646;2023-04-25T00:09:56;98873.16;;;11.44;84.80
74218;BME280;62579;47.288;18.646;2023-04-25T00:12:21;98871.78;;;11.51;84.17
74218;BME280;62579;47.288;18.646;2023-04-25T00:14:47;98870.34;;;11.50;84.35
74218;BME280;62579;47.288;18.646;2023-04-25T00:17:14;98870.97;;;11.43;84.32
74218;BME280;62579;47.288;18.646;2023-04-25T00:19:39;98868.03;;;11.41;83.88
74218;BME280;62579;47.288;18.646;2023-04-25T00:22:05;98860.19;;;11.37;84.00
74218;BME280;62579;47.288;18.646;2023-04-25T00:24:30;98856.72;;;11.37;83.88
74218;BME280;62579;47.288;18.646;2023-04-25T00:26:55;98860.91;;;11.38;83.88
74218;BME280;62579;47.288;18.646;2023-04-25T00:29:21;98854.00;;;11.37;83.50
74218;BME280;62579;47.288;18.646;2023-04-25T00:31:46;98853.78;;;11.35;83.37
74218;BME280;62579;47.288;18.646;2023-04-25T00:34:11;98842.78;;;11.40;82.97
74218;BME280;62579;47.288;18.646;2023-04-25T00:36:36;98851.41;;;11.31;83.16
74218;BME280;62579;47.288;18.646;2023-04-25T00:41:31;98844.66;;;11.32;82.85
74218;BME280;62579;47.288;18.646;2023-04-25T00:43:57;98842.37;;;11.36;82.39
74218;BME280;62579;47.288;18.646;2023-04-25T00:46:22;98847.41;;;11.32;82.15
74218;BME280;62579;47.288;18.646;2023-04-25T00:48:48;98844.47;;;11.30;81.81
74218;BME280;62579;47.288;18.646;2023-04-25T00:51:13;98831.88;;;11.40;81.50
74218;BME280;62579;47.288;18.646;2023-04-25T00:53:40;98840.59;;;11.26;81.12
74218;BME280;62579;47.288;18.646;2023-04-25T00:56:05;98841.66;;;11.23;81.28
74218;BME280;62579;47.288;18.646;2023-04-25T00:58:31;98842.47;;;11.31;80.51
74218;BME280;62579;47.288;18.646;2023-04-25T01:00:56;98848.03;;;11.25;80.62
74218;BME280;62579;47.288;18.646;2023-04-25T01:03:22;98853.28;;;11.23;79.71
74218;BME280;62579;47.288;18.646;2023-04-25T01:05:47;98841.00;;;11.17;79.94
74218;BME280;62579;47.288;18.646;2023-04-25T01:08:13;98843.31;;;11.26;79.21
74218;BME280;62579;47.288;18.646;2023-04-25T01:10:38;98843.31;;;11.26;78.62
74218;BME280;62579;47.288;18.646;2023-04-25T01:13:03;98839.03;;;11.30;78.47
74218;BME280;62579;47.288;18.646;2023-04-25T01:15:29;98843.44;;;11.20;78.49
74218;BME280;62579;47.288;18.646;2023-04-25T01:17:54;98829.63;;;11.18;78.31
74218;BME280;62579;47.288;18.646;2023-04-25T01:20:23;98843.31;;;11.26;77.39
74218;BME280;62579;47.288;18.646;2023-04-25T01:22:49;98834.72;;;11.22;77.52
74218;BME280;62579;47.288;18.646;2023-04-25T01:25:15;98839.56;;;11.16;77.52
74218;BME280;62579;47.288;18.646;2023-04-25T01:27:40;98833.06;;;11.19;77.54
74218;BME280;62579;47.288;18.646;2023-04-25T01:30:06;98845.53;;;11.14;77.37
74218;BME280;62579;47.288;18.646;2023-04-25T01:32:31;98833.88;;;11.14;77.04
74218;BME280;62579;47.288;18.646;2023-04-25T01:35:03;98834.63;;;11.14;76.43
74218;BME280;62579;47.288;18.646;2023-04-25T01:37:29;98847.31;;;11.12;76.09
74218;BME280;62579;47.288;18.646;2023-04-25T01:39:54;98847.09;;;11.10;75.85
74218;BME280;62579;47.288;18.646;2023-04-25T01:42:19;98835.06;;;11.18;74.85
74218;BME280;62579;47.288;18.646;2023-04-25T01:44:44;98836.75;;;11.21;74.71
74218;BME280;62579;47.288;18.646;2023-04-25T01:47:10;98847.19;;;11.17;74.51
74218;BME280;62579;47.288;18.646;2023-04-25T01:49:35;98833.19;;;11.13;74.86
74218;BME280;62579;47.288;18.646;2023-04-25T01:52:00;98836.22;;;11.10;74.77
74218;BME280;62579;47.288;18.646;2023-04-25T01:54:25;98840.19;;;11.09;74.51
74218;BME280;62579;47.288;18.646;2023-04-25T01:56:51;98836.31;;;11.17;73.87
74218;BME280;62579;47.288;18.646;2023-04-25T01:59:16;98835.06;;;11.18;74.00
74218;BME280;62579;47.288;18.646;2023-04-25T02:01:43;98832.53;;;11.20;73.85
74218;BME280;62579;47.288;18.646;2023-04-25T02:04:08;98837.03;;;11.18;73.70
74218;BME280;62579;47.288;18.646;2023-04-25T02:06:33;98838.00;;;11.07;73.93
74218;BME280;62579;47.288;18.646;2023-04-25T02:08:58;98833.88;;;11.14;74.02
74218;BME280;62579;47.288;18.646;2023-04-25T02:11:23;98832.44;;;11.13;74.18
74218;BME280;62579;47.288;18.646;2023-04-25T02:16:24;98838.09;;;11.15;73.97
74218;BME280;62579;47.288;18.646;2023-04-25T02:18:50;98835.25;;;11.07;74.25
74218;BME280;62579;47.288;18.646;2023-04-25T02:21:17;98839.88;;;11.12;74.24
74218;BME280;62579;47.288;18.646;2023-04-25T02:23:42;98839.22;;;11.19;73.77
74218;BME280;62579;47.288;18.646;2023-04-25T02:26:08;98848.03;;;11.12;74.10
74218;BME280;62579;47.288;18.646;2023-04-25T02:28:33;98844.56;;;11.12;73.68
74218;BME280;62579;47.288;18.646;2023-04-25T02:30:58;98846.34;;;11.09;73.63
74218;BME280;62579;47.288;18.646;2023-04-25T02:33:23;98846.34;;;11.09;74.26
74218;BME280;62579;47.288;18.646;2023-04-25T02:35:49;98845.94;;;11.05;74.34
74218;BME280;62579;47.288;18.646;2023-04-25T02:38:14;98840.06;;;11.01;74.13
74218;BME280;62579;47.288;18.646;2023-04-25T02:40:39;98835.78;;;11.06;73.78
74218;BME280;62579;47.288;18.646;2023-04-25T02:43:05;98847.00;;;11.02;74.10
74218;BME280;62579;47.288;18.646;2023-04-25T02:45:30;98844.38;;;11.10;73.76
74218;BME280;62579;47.288;18.646;2023-04-25T02:47:56;98841.00;;;11.04;73.43
74218;BME280;62579;47.288;18.646;2023-04-25T02:50:21;98843.63;;;11.09;73.96
74218;BME280;62579;47.288;18.646;2023-04-25T02:52:46;98836.63;;;11.01;73.90
74218;BME280;62579;47.288;18.646;2023-04-25T02:55:12;98842.06;;;11.01;73.99
74218;BME280;62579;47.288;18.646;2023-04-25T02:57:37;98830.22;;;10.98;73.82
74218;BME280;62579;47.288;18.646;2023-04-25T03:00:03;98843.63;;;10.96;73.72
74218;BME280;62579;47.288;18.646;2023-04-25T03:02:30;98851.16;;;10.90;74.48
74218;BME280;62579;47.288;18.646;2023-04-25T03:04:55;98839.22;;;10.93;73.87
74218;BME280;62579;47.288;18.646;2023-04-25T03:07:20;98855.56;;;10.93;74.06
74218;BME280;62579;47.288;18.646;2023-04-25T03:09:46;98855.34;;;10.91;74.00
74218;BME280;62579;47.288;18.646;2023-04-25T03:12:11;98851.47;;;10.86;74.23
74218;BME280;62579;47.288;18.646;2023-04-25T03:14:36;98847.28;;;10.85;74.32
74218;BME280;62579;47.288;18.646;2023-04-25T03:19:31;98848.44;;;10.90;73.98
74218;BME280;62579;47.288;18.646;2023-04-25T03:21:56;98855.00;;;10.81;74.32
74218;BME280;62579;47.288;18.646;2023-04-25T03:24:22;98868.31;;;10.85;73.88
74218;BME280;62579;47.288;18.646;2023-04-25T03:26:47;98850.00;;;10.85;73.72
74218;BME280;62579;47.288;18.646;2023-04-25T03:29:12;98857.44;;;10.85;73.50
74218;BME280;62579;47.288;18.646;2023-04-25T03:31:37;98858.06;;;10.78;73.88
74218;BME280;62579;47.288;18.646;2023-04-25T03:34:03;98870.94;;;10.77;73.93
74218;BME280;62579;47.288;18.646;2023-04-25T03:36:28;98865.59;;;10.85;73.88
74218;BME280;62579;47.288;18.646;2023-04-25T03:38:53;98869.78;;;10.73;74.53
74218;BME280;62579;47.288;18.646;2023-04-25T03:41:18;98861.38;;;10.71;74.43
74218;BME280;62579;47.288;18.646;2023-04-25T03:43:43;98869.56;;;10.71;74.82
74218;BME280;62579;47.288;18.646;2023-04-25T03:46:09;98874.13;;;10.63;75.55
74218;BME280;62579;47.288;18.646;2023-04-25T03:48:34;98882.53;;;10.65;75.34
74218;BME280;62579;47.288;18.646;2023-04-25T03:50:59;98865.97;;;10.63;76.06
74218;BME280;62579;47.288;18.646;2023-04-25T03:53:25;98883.94;;;10.53;76.34
74218;BME280;62579;47.288;18.646;2023-04-25T03:55:50;98884.78;;;10.48;76.96
74218;BME280;62579;47.288;18.646;2023-04-25T03:58:16;98879.94;;;10.41;77.78
74218;BME280;62579;47.288;18.646;2023-04-25T04:00:41;98880.31;;;10.32;78.88
74218;BME280;62579;47.288;18.646;2023-04-25T04:03:06;98879.28;;;10.35;78.69
74218;BME280;62579;47.288;18.646;2023-04-25T04:05:32;98890.47;;;10.31;79.09
74218;BME280;62579;47.288;18.646;2023-04-25T04:07:57;98883.13;;;10.26;78.87
74218;BME280;62579;47.288;18.646;2023-04-25T04:10:23;98892.09;;;10.21;80.73
74218;BME280;62579;47.288;18.646;2023-04-25T04:12:48;98888.72;;;10.15;80.52
74218;BME280;62579;47.288;18.646;2023-04-25T04:15:13;98889.28;;;10.08;81.86
74218;BME280;62579;47.288;18.646;2023-04-25T04:17:38;98887.16;;;10.01;82.16
74218;BME280;62579;47.288;18.646;2023-04-25T04:20:04;98881.28;;;9.97;82.52
74218;BME280;62579;47.288;18.646;2023-04-25T04:22:29;98907.66;;;10.02;83.36
74218;BME280;62579;47.288;18.646;2023-04-25T04:24:54;98897.44;;;9.89;83.26
74218;BME280;62579;47.288;18.646;2023-04-25T04:27:21;98895.44;;;9.90;84.08
74218;BME280;62579;47.288;18.646;2023-04-25T04:29:47;98912.88;;;9.81;83.89
74218;BME280;62579;47.288;18.646;2023-04-25T04:32:13;98897.38;;;9.76;84.74
74218;BME280;62579;47.288;18.646;2023-04-25T04:34:38;98908.88;;;9.82;84.61
74218;BME280;62579;47.288;18.646;2023-04-25T04:37:04;98902.06;;;9.76;85.27
74218;BME280;62579;47.288;18.646;2023-04-25T04:39:29;98901.81;;;9.74;84.66
74218;BME280;62579;47.288;18.646;2023-04-25T04:41:55;98904.63;;;9.68;85.57
74218;BME280;62579;47.288;18.646;2023-04-25T04:44:20;98898.97;;;9.66;85.40
74218;BME280;62579;47.288;18.646;2023-04-25T04:46:45;98904.84;;;9.70;85.63
74218;BME280;62579;47.288;18.646;2023-04-25T04:49:11;98904.97;;;9.59;86.19
74218;BME280;62579;47.288;18.646;2023-04-25T04:51:38;98902.84;;;9.52;86.44
74218;BME280;62579;47.288;18.646;2023-04-25T04:54:04;98904.03;;;9.56;86.67
74218;BME280;62579;47.288;18.646;2023-04-25T04:56:30;98900.34;;;9.54;86.86
74218;BME280;62579;47.288;18.646;2023-04-25T04:58:58;98891.91;;;9.57;86.47
74218;BME280;62579;47.288;18.646;2023-04-25T05:01:23;98904.47;;;9.60;85.28
74218;BME280;62579;47.288;18.646;2023-04-25T05:03:49;98902.25;;;9.59;86.38
74218;BME280;62579;47.288;18.646;2023-04-25T05:06:15;98905.47;;;9.57;86.83
74218;BME280;62579;47.288;18.646;2023-04-25T05:08:41;98905.72;;;9.59;87.81
74218;BME280;62579;47.288;18.646;2023-04-25T05:11:06;98910.75;;;9.50;87.95
74218;BME280;62579;47.288;18.646;2023-04-25T05:13:31;98905.13;;;9.66;87.47
74218;BME280;62579;47.288;18.646;2023-04-25T05:15:56;98905.41;;;9.63;86.92
74218;BME280;62579;47.288;18.646;2023-04-25T05:18:21;98890.81;;;9.66;86.83
74218;BME280;62579;47.288;18.646;2023-04-25T05:20:47;98901.41;;;9.70;86.21
74218;BME280;62579;47.288;18.646;2023-04-25T05:23:12;98911.03;;;9.71;85.88
74218;BME280;62579;47.288;18.646;2023-04-25T05:25:37;98910.16;;;9.81;84.80
74218;BME280;62579;47.288;18.646;2023-04-25T05:28:02;98902.66;;;9.87;84.70
74218;BME280;62579;47.288;18.646;2023-04-25T05:30:27;98892.16;;;9.97;84.45
74218;BME280;62579;47.288;18.646;2023-04-25T05:32:53;98893.72;;;9.92;83.85
74218;BME280;62579;47.288;18.646;2023-04-25T05:35:18;98891.19;;;9.94;83.44
74218;BME280;62579;47.288;18.646;2023-04-25T05:37:43;98894.19;;;10.09;82.21
74218;BME280;62579;47.288;18.646;2023-04-25T05:40:08;98891.69;;;10.11;82.69
74218;BME280;62579;47.288;18.646;2023-04-25T05:42:34;98895.03;;;10.23;82.86
74218;BME280;62579;47.288;18.646;2023-04-25T05:44:59;98904.94;;;10.39;81.95
74218;BME280;62579;47.288;18.646;2023-04-25T05:47:25;98892.50;;;10.44;80.64
74218;BME280;62579;47.288;18.646;2023-04-25T05:49:50;98897.63;;;10.47;80.70
74218;BME280;62579;47.288;18.646;2023-04-25T05:52:16;98903.28;;;10.49;80.28
74218;BME280;62579;47.288;18.646;2023-04-25T05:54:41;98897.16;;;10.62;80.37
74218;BME280;62579;47.288;18.646;2023-04-25T05:57:06;98906.50;;;10.66;79.47
74218;BME280;62579;47.288;18.646;2023-04-25T05:59:31;98891.75;;;10.75;80.36
74218;BME280;62579;47.288;18.646;2023-04-25T06:01:56;98886.19;;;10.67;79.44
74218;BME280;62579;47.288;18.646;2023-04-25T06:04:22;98898.16;;;10.77;79.22
74218;BME280;62579;47.288;18.646;2023-04-25T06:06:47;98882.41;;;10.70;80.19
74218;BME280;62579;47.288;18.646;2023-04-25T06:09:12;98892.59;;;10.70;80.05
74218;BME280;62579;47.288;18.646;2023-04-25T06:11:37;98896.94;;;10.60;80.42
74218;BME280;62579;47.288;18.646;2023-04-25T06:14:02;98906.88;;;10.57;80.42
74218;BME280;62579;47.288;18.646;2023-04-25T06:16:28;98912.03;;;10.61;79.85
74218;BME280;62579;47.288;18.646;2023-04-25T06:18:53;98906.88;;;10.57;81.06
74218;BME280;62579;47.288;18.646;2023-04-25T06:21:18;98907.69;;;10.52;80.65
74218;BME280;62579;47.288;18.646;2023-04-25T06:23:43;98903.31;;;10.62;81.46
74218;BME280;62579;47.288;18.646;2023-04-25T06:26:08;98900.59;;;10.62;81.52
74218;BME280;62579;47.288;18.646;2023-04-25T06:28:34;98911.06;;;10.58;81.70
74218;BME280;62579;47.288;18.646;2023-04-25T06:30:59;98915.56;;;10.56;80.52
74218;BME280;62579;47.288;18.646;2023-04-25T06:33:24;98896.06;;;10.52;81.73
74218;BME280;62579;47.288;18.646;2023-04-25T06:35:50;98908.81;;;10.44;81.07
74218;BME280;62579;47.288;18.646;2023-04-25T06:38:15;98914.25;;;10.44;82.54
74218;BME280;62579;47.288;18.646;2023-04-25T06:40:40;98907.03;;;10.46;81.34
74218;BME280;62579;47.288;18.646;2023-04-25T06:43:05;98915.19;;;10.46;81.78
74218;BME280;62579;47.288;18.646;2023-04-25T06:45:30;98903.37;;;10.44;83.21
74218;BME280;62579;47.288;18.646;2023-04-25T06:47:56;98913.66;;;10.51;80.61
74218;BME280;62579;47.288;18.646;2023-04-25T06:50:21;98913.06;;;10.58;80.76
74218;BME280;62579;47.288;18.646;2023-04-25T06:52:46;98921.09;;;10.50;80.70
74218;BME280;62579;47.288;18.646;2023-04-25T06:55:11;98914.41;;;10.51;81.93
74218;BME280;62579;47.288;18.646;2023-04-25T06:57:37;98919.31;;;10.53;80.10
74218;BME280;62579;47.288;18.646;2023-04-25T07:02:47;98915.56;;;10.56;80.14
74218;BME280;62579;47.288;18.646;2023-04-25T07:05:13;98921.41;;;10.60;79.57
74218;BME280;62579;47.288;18.646;2023-04-25T07:07:38;98921.50;;;10.54;79.99
74218;BME280;62579;47.288;18.646;2023-04-25T07:10:03;98929.22;;;10.69;79.85
74218;BME280;62579;47.288;18.646;2023-04-25T07:12:28;98924.59;;;10.64;77.71
74218;BME280;62579;47.288;18.646;2023-04-25T07:14:54;98922.94;;;10.74;78.61
74218;BME280;62579;47.288;18.646;2023-04-25T07:17:19;98917.94;;;10.78;79.46
74218;BME280;62579;47.288;18.646;2023-04-25T07:19:44;98922.19;;;10.73;77.67
74218;BME280;62579;47.288;18.646;2023-04-25T07:22:10;98917.63;;;10.81;78.96
74218;BME280;62579;47.288;18.646;2023-04-25T07:24:35;98916.69;;;10.92;78.66
74218;BME280;62579;47.288;18.646;2023-04-25T07:27:00;98923.63;;;11.06;77.97
74218;BME280;62579;47.288;18.646;2023-04-25T07:31:55;98914.34;;;11.15;79.32
74218;BME280;62579;47.288;18.646;2023-04-25T07:34:21;98903.56;;;11.22;78.77
74218;BME280;62579;47.288;18.646;2023-04-25T07:36:46;98913.00;;;11.21;78.74
74218;BME280;62579;47.288;18.646;2023-04-25T07:39:11;98923.88;;;11.21;78.10
74218;BME280;62579;47.288;18.646;2023-04-25T07:41:36;98924.69;;;11.16;78.74
74218;BME280;62579;47.288;18.646;2023-04-25T07:44:02;98926.47;;;11.14;78.68
74218;BME280;62579;47.288;18.646;2023-04-25T07:46:27;98921.22;;;11.03;78.85
74218;BME280;62579;47.288;18.646;2023-04-25T07:48:52;98921.84;;;11.09;79.73
74218;BME280;62579;47.288;18.646;2023-04-25T07:51:17;98922.69;;;11.04;78.14
74218;BME280;62579;47.288;18.646;2023-04-25T07:53:45;98915.25;;;11.04;78.57
74218;BME280;62579;47.288;18.646;2023-04-25T07:56:10;98916.31;;;11.01;78.52
74218;BME280;62579;47.288;18.646;2023-04-25T07:58:37;98913.69;;;11.22;79.03
74218;BME280;62579;47.288;18.646;2023-04-25T08:01:02;98919.91;;;11.35;79.38
74218;BME280;62579;47.288;18.646;2023-04-25T08:03:27;98912.25;;;11.60;77.89
74218;BME280;62579;47.288;18.646;2023-04-25T08:05:53;98907.53;;;11.74;76.26
74218;BME280;62579;47.288;18.646;2023-04-25T08:08:18;98901.03;;;11.77;76.07
74218;BME280;62579;47.288;18.646;2023-04-25T08:10:43;98906.34;;;11.95;76.06
74218;BME280;62579;47.288;18.646;2023-04-25T08:13:08;98911.41;;;12.25;74.31
74218;BME280;62579;47.288;18.646;2023-04-25T08:15:34;98915.47;;;12.32;73.44
74218;BME280;62579;47.288;18.646;2023-04-25T08:17:59;98906.91;;;12.48;73.92
74218;BME280;62579;47.288;18.646;2023-04-25T08:20:24;98919.81;;;12.48;72.69
74218;BME280;62579;47.288;18.646;2023-04-25T08:22:50;98920.34;;;12.67;72.64
74218;BME280;62579;47.288;18.646;2023-04-25T08:25:15;98909.78;;;12.63;71.42
74218;BME280;62579;47.288;18.646;2023-04-25T08:27:40;98920.09;;;12.57;72.01
74218;BME280;62579;47.288;18.646;2023-04-25T08:48:52;98946.00;;;12.85;69.79
74218;BME280;62579;47.288;18.646;2023-04-25T08:51:21;98936.16;;;12.82;70.27
74218;BME280;62579;47.288;18.646;2023-04-25T08:53:48;98948.38;;;12.88;69.59
74218;BME280;62579;47.288;18.646;2023-04-25T08:56:15;98941.06;;;12.83;68.66
74218;BME280;62579;47.288;18.646;2023-04-25T08:58:42;98932.03;;;13.09;69.45
74218;BME280;62579;47.288;18.646;2023-04-25T09:01:08;98938.47;;;12.98;68.39
74218;BME280;62579;47.288;18.646;2023-04-25T09:03:34;98941.53;;;12.95;67.57
74218;BME280;62579;47.288;18.646;2023-04-25T09:06:00;98927.34;;;13.17;67.21
74218;BME280;62579;47.288;18.646;2023-04-25T09:08:25;98926.63;;;13.45;66.60
74218;BME280;62579;47.288;18.646;2023-04-25T09:10:50;98928.88;;;13.54;65.80
74218;BME280;62579;47.288;18.646;2023-04-25T09:13:23;98931.78;;;13.56;65.66
74218;BME280;62579;47.288;18.646;2023-04-25T09:15:49;98923.28;;;13.67;67.01
74218;BME280;62579;47.288;18.646;2023-04-25T09:18:29;98933.03;;;13.83;65.68
74218;BME280;62579;47.288;18.646;2023-04-25T09:20:58;98928.78;;;13.74;64.87
74218;BME280;62579;47.288;18.646;2023-04-25T09:23:29;98924.31;;;13.56;65.19
74218;BME280;62579;47.288;18.646;2023-04-25T09:25:55;98919.66;;;13.72;66.37
74218;BME280;62579;47.288;18.646;2023-04-25T09:28:24;98929.88;;;13.71;66.27
74218;BME280;62579;47.288;18.646;2023-04-25T09:30:56;98925.94;;;13.52;64.32
74218;BME280;62579;47.288;18.646;2023-04-25T09:33:26;98919.50;;;13.42;65.17
74218;BME280;62579;47.288;18.646;2023-04-25T09:35:52;98928.94;;;13.33;65.57
74218;BME280;62579;47.288;18.646;2023-04-25T09:38:20;98925.94;;;13.23;64.37
74218;BME280;62579;47.288;18.646;2023-04-25T09:40:47;98921.50;;;13.41;65.07
74218;BME280;62579;47.288;18.646;2023-04-25T09:43:24;98925.44;;;13.61;63.14
74218;BME280;62579;47.288;18.646;2023-04-25T09:45:50;98917.28;;;13.68;62.48
74218;BME280;62579;47.288;18.646;2023-04-25T09:48:20;98922.06;;;13.83;61.63
74218;BME280;62579;47.288;18.646;2023-04-25T09:50:54;98916.09;;;13.84;61.44
74218;BME280;62579;47.288;18.646;2023-04-25T09:53:28;98914.88;;;14.01;59.98
74218;BME280;62579;47.288;18.646;2023-04-25T09:55:53;98912.81;;;13.94;61.40
74218;BME280;62579;47.288;18.646;2023-04-25T09:58:20;98927.66;;;14.06;60.63
74218;BME280;62579;47.288;18.646;2023-04-25T10:00:46;98918.28;;;14.37;60.44
74218;BME280;62579;47.288;18.646;2023-04-25T10:03:11;98919.37;;;14.41;59.87
74218;BME280;62579;47.288;18.646;2023-04-25T10:05:37;98923.28;;;14.76;59.13
74218;BME280;62579;47.288;18.646;2023-04-25T10:08:02;98911.59;;;14.68;58.19
74218;BME280;62579;47.288;18.646;2023-04-25T10:10:29;98918.72;;;14.79;58.30
74218;BME280;62579;47.288;18.646;2023-04-25T10:12:57;98922.16;;;14.57;55.68
74218;BME280;62579;47.288;18.646;2023-04-25T10:15:23;98924.88;;;14.57;55.49
74218;BME280;62579;47.288;18.646;2023-04-25T10:17:49;98940.41;;;14.62;56.50
74218;BME280;62579;47.288;18.646;2023-04-25T10:20:14;98921.59;;;14.66;55.39
74218;BME280;62579;47.288;18.646;2023-04-25T10:22:44;98918.31;;;14.82;54.86
74218;BME280;62579;47.288;18.646;2023-04-25T10:25:10;98922.91;;;15.02;55.99
74218;BME280;62579;47.288;18.646;2023-04-25T10:27:36;98917.25;;;15.08;55.86
74218;BME280;62579;47.288;18.646;2023-04-25T10:32:31;98922.72;;;14.85;57.37
74218;BME280;62579;47.288;18.646;2023-04-25T10:34:57;98925.47;;;15.00;57.63
74218;BME280;62579;47.288;18.646;2023-04-25T10:37:23;98917.22;;;14.93;56.54
74218;BME280;62579;47.288;18.646;2023-04-25T10:39:49;98930.19;;;14.70;55.85
74218;BME280;62579;47.288;18.646;2023-04-25T10:42:14;98938.16;;;14.37;56.87
74218;BME280;62579;47.288;18.646;2023-04-25T10:44:39;98928.31;;;14.50;56.95
74218;BME280;62579;47.288;18.646;2023-04-25T10:47:06;98933.81;;;14.50;57.41
74218;BME280;62579;47.288;18.646;2023-04-25T11:00:06;98939.13;;;15.53;52.68
74218;BME280;62579;47.288;18.646;2023-04-25T11:02:36;98934.28;;;15.84;52.05
74218;BME280;62579;47.288;18.646;2023-04-25T11:05:02;98928.81;;;15.77;50.35
74218;BME280;62579;47.288;18.646;2023-04-25T11:09:55;98936.44;;;15.93;50.29
74218;BME280;62579;47.288;18.646;2023-04-25T11:12:21;98931.31;;;15.97;50.07
74218;BME280;62579;47.288;18.646;2023-04-25T11:14:46;98924.69;;;16.00;49.26
74218;BME280;62579;47.288;18.646;2023-04-25T11:17:11;98930.66;;;16.21;49.48
74218;BME280;62579;47.288;18.646;2023-04-25T11:19:36;98930.78;;;16.31;48.08
74218;BME280;62579;47.288;18.646;2023-04-25T11:22:02;98933.31;;;16.37;48.10
74218;BME280;62579;47.288;18.646;2023-04-25T11:24:28;98938.50;;;16.25;47.83
74218;BME280;62579;47.288;18.646;2023-04-25T11:26:54;98936.75;;;16.45;47.28
74218;BME280;62579;47.288;18.646;2023-04-25T11:29:22;98950.63;;;16.14;46.51
74218;BME280;62579;47.288;18.646;2023-04-25T11:31:47;98938.00;;;16.11;46.08
74218;BME280;62579;47.288;18.646;2023-04-25T11:34:16;98933.09;;;16.10;47.64
74218;BME280;62579;47.288;18.646;2023-04-25T11:36:41;98943.34;;;16.09;49.66
74218;BME280;62579;47.288;18.646;2023-04-25T11:39:07;98945.88;;;16.47;48.85
74218;BME280;62579;47.288;18.646;2023-04-25T11:41:32;98942.50;;;16.32;47.49
74218;BME280;62579;47.288;18.646;2023-04-25T11:43:57;98942.03;;;16.50;46.85
74218;BME280;62579;47.288;18.646;2023-04-25T11:46:22;98941.91;;;16.73;47.45
74218;BME280;62579;47.288;18.646;2023-04-25T11:48:48;98946.69;;;16.72;43.75
74218;BME280;62579;47.288;18.646;2023-04-25T11:51:15;98938.09;;;16.93;43.44
74218;BME280;62579;47.288;18.646;2023-04-25T11:53:40;98944.88;;;16.92;42.98
74218;BME280;62579;47.288;18.646;2023-04-25T11:56:09;98940.56;;;16.81;44.34
74218;BME280;62579;47.288;18.646;2023-04-25T11:58:53;98936.38;;;17.22;46.22
74218;BME280;62579;47.288;18.646;2023-04-25T12:04:25;98945.53;;;17.00;44.17
74218;BME280;62579;47.288;18.646;2023-04-25T12:06:51;98951.00;;;16.51;41.58
74218;BME280;62579;47.288;18.646;2023-04-25T12:09:19;98946.78;;;16.17;43.64
74218;BME280;62579;47.288;18.646;2023-04-25T12:11:53;98949.22;;;16.38;44.26
74218;BME280;62579;47.288;18.646;2023-04-25T12:14:22;98945.50;;;16.58;42.97
74218;BME280;62579;47.288;18.646;2023-04-25T12:16:49;98935.72;;;16.65;43.92
74218;BME280;62579;47.288;18.646;2023-04-25T12:19:15;98936.38;;;16.80;42.81
74218;BME280;62579;47.288;18.646;2023-04-25T12:21:40;98942.97;;;16.77;43.16
74218;BME280;62579;47.288;18.646;2023-04-25T12:24:13;98924.28;;;16.76;43.16
74218;BME280;62579;47.288;18.646;2023-04-25T12:27:03;98923.47;;;16.91;42.22
74218;BME280;62579;47.288;18.646;2023-04-25T12:29:29;98929.84;;;16.93;43.74
74218;BME280;62579;47.288;18.646;2023-04-25T12:31:55;98929.13;;;16.68;41.38
74218;BME280;62579;47.288;18.646;2023-04-25T12:34:21;98935.75;;;16.25;41.86
74218;BME280;62579;47.288;18.646;2023-04-25T12:36:47;98925.28;;;16.31;42.21
74218;BME280;62579;47.288;18.646;2023-04-25T12:39:20;98920.72;;;16.66;43.06
74218;BME280;62579;47.288;18.646;2023-04-25T12:41:46;98923.22;;;16.71;43.18
74218;BME280;62579;47.288;18.646;2023-04-25T12:44:12;98910.69;;;16.86;42.13
74218;BME280;62579;47.288;18.646;2023-04-25T12:46:38;98912.41;;;16.73;41.71
74218;BME280;62579;47.288;18.646;2023-04-25T12:49:03;98916.56;;;16.57;42.39
74218;BME280;62579;47.288;18.646;2023-04-25T12:51:29;98908.97;;;16.65;44.06
74218;BME280;62579;47.288;18.646;2023-04-25T12:53:54;98910.00;;;17.02;44.23
74218;BME280;62579;47.288;18.646;2023-04-25T12:56:19;98910.78;;;16.95;41.77
74218;BME280;62579;47.288;18.646;2023-04-25T12:58:45;98911.63;;;16.56;43.52
74218;BME280;62579;47.288;18.646;2023-04-25T13:01:10;98907.28;;;16.45;43.24
74218;BME280;62579;47.288;18.646;2023-04-25T13:03:37;98909.22;;;16.52;44.71
74218;BME280;62579;47.288;18.646;2023-04-25T13:06:02;98916.97;;;16.46;44.18
74218;BME280;62579;47.288;18.646;2023-04-25T13:08:28;98912.00;;;16.20;43.72
74218;BME280;62579;47.288;18.646;2023-04-25T13:10:53;98912.13;;;15.90;44.90
74218;BME280;62579;47.288;18.646;2023-04-25T13:13:18;98904.59;;;15.98;45.18
74218;BME280;62579;47.288;18.646;2023-04-25T13:15:43;98904.81;;;16.32;44.83
74218;BME280;62579;47.288;18.646;2023-04-25T13:18:08;98910.16;;;16.55;45.76
74218;BME280;62579;47.288;18.646;2023-04-25T13:20:34;98909.44;;;16.47;43.74
74218;BME280;62579;47.288;18.646;2023-04-25T13:22:59;98898.13;;;16.75;44.80
74218;BME280;62579;47.288;18.646;2023-04-25T13:25:24;98908.97;;;16.90;44.94
74218;BME280;62579;47.288;18.646;2023-04-25T13:27:50;98901.63;;;16.93;42.79
74218;BME280;62579;47.288;18.646;2023-04-25T13:30:15;98888.81;;;17.12;42.99
74218;BME280;62579;47.288;18.646;2023-04-25T13:32:40;98883.91;;;17.45;42.69